Time;durP1;ratioP1;P1;durP2;ratioP2;P2;SDS_P1;SDS_P2;PMS_P1;PMS_P2;Temp;Humidity;BMP_temperature;BMP_pressure;BME280_temperature;BME280_humidity;BME280_pressure;Samples;Min_cycle;Max_cycle;Signal;HPM_P1;HPM_P2
2021/03/03 00:01:58;;;;;;;37.47;20.05;;;;;;;3.35;89.60;102927.53;4958377;28;20315;-73
2021/03/03 00:04:26;;;;;;;37.93;21.33;;;;;;;3.35;89.83;102937.69;4989604;28;20036;-74
2021/03/03 00:06:51;;;;;;;43.67;22.43;;;;;;;3.33;89.82;102929.94;4966011;28;20029;-73
2021/03/03 00:09:17;;;;;;;35.03;19.48;;;;;;;3.29;89.03;102932.97;4972216;28;20386;-73
2021/03/03 00:11:42;;;;;;;36.28;18.85;;;;;;;3.19;88.50;102938.00;4972477;28;20333;-73
2021/03/03 00:14:08;;;;;;;40.13;20.50;;;;;;;3.18;88.90;102942.94;4993106;28;20333;-73
2021/03/03 00:16:33;;;;;;;43.67;21.85;;;;;;;3.23;90.20;102946.75;4980017;28;20155;-73
2021/03/03 00:18:59;;;;;;;40.05;22.42;;;;;;;3.27;90.85;102943.75;4968034;28;20256;-73
2021/03/03 00:21:24;;;;;;;40.58;22.80;;;;;;;3.28;90.90;102945.53;4979178;28;20327;-73
2021/03/03 00:23:50;;;;;;;60.83;29.20;;;;;;;3.47;93.76;102938.72;4988887;28;20343;-73
2021/03/03 00:26:15;;;;;;;55.67;27.98;;;;;;;3.70;95.54;102945.78;4959593;28;20024;-73
2021/03/03 00:28:41;;;;;;;53.75;27.33;;;;;;;3.72;95.49;102937.50;4970756;28;20481;-74
2021/03/03 00:31:06;;;;;;;32.25;19.15;;;;;;;3.59;94.50;102938.91;4987263;28;20279;-73
2021/03/03 00:33:31;;;;;;;26.42;15.25;;;;;;;3.34;91.92;102940.97;4974457;28;20028;-74
2021/03/03 00:35:57;;;;;;;50.08;26.58;;;;;;;3.27;91.66;102943.75;4983700;28;20373;-73
2021/03/03 00:38:22;;;;;;;52.80;24.02;;;;;;;3.28;92.58;102938.81;4957575;28;20399;-73
2021/03/03 00:40:48;;;;;;;36.28;19.02;;;;;;;3.30;92.18;102934.75;4982445;28;20028;-73
2021/03/03 00:43:13;;;;;;;29.48;16.95;;;;;;;3.25;91.57;102940.16;4993922;28;20490;-73
2021/03/03 00:45:39;;;;;;;34.40;19.00;;;;;;;3.07;90.12;102945.44;4972889;28;20353;-73
2021/03/03 00:48:05;;;;;;;31.40;18.02;;;;;;;2.89;89.70;102946.34;4988821;28;20358;-74
2021/03/03 00:50:30;;;;;;;40.78;19.98;;;;;;;2.78;90.86;102940.34;4969756;28;20350;-73
2021/03/03 00:52:56;;;;;;;44.33;22.33;;;;;;;2.74;91.30;102945.91;4962022;28;20348;-73
2021/03/03 00:55:21;;;;;;;41.67;22.75;;;;;;;2.75;91.92;102934.09;4982596;28;20187;-73
2021/03/03 00:57:47;;;;;;;33.85;19.52;;;;;;;2.78;91.44;102940.34;4958507;28;20462;-73
2021/03/03 01:00:13;;;;;;;38.15;21.17;;;;;;;2.73;91.42;102940.69;4974277;28;20479;-73
2021/03/03 01:02:38;;;;;;;32.80;19.02;;;;;;;2.69;90.98;102947.16;4964967;28;20317;-73
2021/03/03 01:05:04;;;;;;;30.83;18.08;;;;;;;2.65;90.23;102942.56;4961306;28;20300;-73
2021/03/03 01:07:30;;;;;;;30.38;17.73;;;;;;;2.63;89.35;102944.06;4968004;28;20343;-73
2021/03/03 01:09:55;;;;;;;39.25;20.27;;;;;;;2.59;89.62;102941.97;4988921;28;20032;-73
2021/03/03 01:12:20;;;;;;;48.55;23.00;;;;;;;2.56;90.76;102938.28;4987690;28;20443;-73
2021/03/03 01:14:46;;;;;;;37.78;20.77;;;;;;;2.52;91.74;102934.59;4987836;28;20319;-73
2021/03/03 01:17:12;;;;;;;36.25;20.95;;;;;;;2.49;92.86;102942.81;4961336;28;20371;-74
2021/03/03 01:19:37;;;;;;;29.48;16.55;;;;;;;2.43;92.78;102932.13;4968608;28;20478;-73
2021/03/03 01:22:03;;;;;;;30.42;16.38;;;;;;;2.35;92.51;102933.09;4961746;28;20329;-73
2021/03/03 01:24:28;;;;;;;38.72;19.02;;;;;;;2.40;92.96;102939.47;4970906;28;20524;-73
2021/03/03 01:26:54;;;;;;;44.10;22.95;;;;;;;2.55;94.24;102933.97;4988559;28;20373;-73
2021/03/03 01:29:19;;;;;;;28.13;15.63;;;;;;;2.55;94.14;102928.91;4974719;28;20136;-73
2021/03/03 01:31:45;;;;;;;31.95;18.05;;;;;;;2.53;93.60;102925.31;4982699;28;20326;-73
2021/03/03 01:34:10;;;;;;;36.92;16.52;;;;;;;2.54;93.08;102922.03;4961513;28;20376;-73
2021/03/03 01:36:36;;;;;;;36.47;19.48;;;;;;;2.49;92.20;102914.03;4978432;28;20454;-73
2021/03/03 01:39:03;;;;;;;44.85;21.95;;;;;;;2.50;92.07;102911.63;4992681;28;20350;-73
2021/03/03 01:41:28;;;;;;;25.73;16.50;;;;;;;2.54;91.97;102911.88;4996542;28;20123;-73
2021/03/03 01:43:54;;;;;;;34.10;16.60;;;;;;;2.46;91.33;102909.56;4981008;28;20328;-73
2021/03/03 01:46:20;;;;;;;33.67;19.30;;;;;;;2.42;90.96;102915.13;4986616;28;20365;-73
2021/03/03 01:48:45;;;;;;;31.27;17.95;;;;;;;2.39;90.61;102907.25;4995944;28;20362;-73
2021/03/03 01:51:11;;;;;;;39.22;20.13;;;;;;;2.38;90.62;102915.63;4958715;28;20362;-73
2021/03/03 01:53:36;;;;;;;56.97;26.95;;;;;;;2.42;92.08;102914.25;4977534;28;20024;-73
2021/03/03 01:56:02;;;;;;;55.50;25.52;;;;;;;2.47;92.70;102901.19;4999170;28;20487;-74
2021/03/03 01:58:27;;;;;;;56.10;26.58;;;;;;;2.53;93.60;102907.56;4986812;28;20323;-73
2021/03/03 02:00:53;;;;;;;59.72;28.27;;;;;;;2.55;93.83;102901.88;4984245;28;20338;-73
2021/03/03 02:03:18;;;;;;;55.47;27.33;;;;;;;2.60;94.14;102902.28;4960547;28;20363;-73
2021/03/03 02:05:44;;;;;;;54.08;28.33;;;;;;;2.62;94.52;102903.34;4971020;28;20357;-74
2021/03/03 02:08:12;;;;;;;57.30;27.45;;;;;;;2.63;94.74;102897.50;4966372;28;20028;-73
2021/03/03 02:10:57;;;;;;;48.23;24.87;;;;;;;2.58;94.23;102899.59;4972603;28;20151;-73
2021/03/03 02:13:29;;;;;;;51.37;25.83;;;;;;;2.57;93.75;102904.56;4947444;28;20029;-73
2021/03/03 02:15:58;;;;;;;59.60;30.07;;;;;;;2.61;94.58;102893.94;4957797;28;20017;-73
2021/03/03 02:18:25;;;;;;;58.33;28.87;;;;;;;2.60;94.45;102897.22;4978206;28;20086;-73
2021/03/03 02:21:01;;;;;;;73.03;33.07;;;;;;;2.79;96.19;102895.53;4960814;28;20017;-73
2021/03/03 02:23:43;;;;;;;76.73;34.23;;;;;;;3.28;98.50;102889.66;4960041;28;20033;-73
2021/03/03 02:26:09;;;;;;;48.63;27.30;;;;;;;3.22;98.12;102886.56;4955402;28;20116;-73
2021/03/03 02:28:36;;;;;;;29.40;16.33;;;;;;;3.01;97.66;102881.44;4995661;28;20392;-73
2021/03/03 02:31:03;;;;;;;31.23;16.90;;;;;;;2.70;96.59;102882.06;4958949;28;20057;-73
2021/03/03 02:33:29;;;;;;;39.83;19.97;;;;;;;2.56;95.93;102882.47;4962412;28;20032;-73
2021/03/03 02:35:55;;;;;;;44.30;22.57;;;;;;;2.45;95.99;102882.41;4974130;28;20024;-73
2021/03/03 02:38:21;;;;;;;42.28;22.90;;;;;;;2.38;95.49;102872.50;4964078;28;20452;-73
2021/03/03 02:40:47;;;;;;;46.08;25.70;;;;;;;2.38;95.12;102876.69;4971139;28;20025;-73
2021/03/03 02:43:17;;;;;;;43.13;23.35;;;;;;;2.41;95.07;102882.91;4981410;28;20099;-73
2021/03/03 02:45:45;;;;;;;41.63;20.93;;;;;;;2.44;95.07;102873.03;4963043;28;20457;-73
2021/03/03 02:48:12;;;;;;;47.20;22.73;;;;;;;2.79;96.15;102870.16;4966115;28;20025;-73
2021/03/03 02:50:38;;;;;;;36.27;18.90;;;;;;;2.87;96.75;102864.09;4973395;28;20024;-73
2021/03/03 02:53:03;;;;;;;28.13;15.55;;;;;;;2.91;97.46;102872.88;4989753;28;20332;-74
2021/03/03 02:55:29;;;;;;;31.25;15.35;;;;;;;3.00;97.76;102869.50;4974191;28;20448;-73
2021/03/03 02:57:57;;;;;;;28.13;16.35;;;;;;;2.98;97.44;102867.59;4981050;28;20311;-73
2021/03/03 03:00:28;;;;;;;32.53;17.40;;;;;;;2.88;97.35;102860.81;4962217;28;20033;-73
2021/03/03 03:03:02;;;;;;;27.77;16.60;;;;;;;2.76;96.82;102865.72;4957071;28;20021;-73
2021/03/03 03:05:29;;;;;;;28.27;14.97;;;;;;;2.70;96.59;102869.38;4968221;28;20088;-73
2021/03/03 03:07:59;;;;;;;32.83;15.23;;;;;;;2.59;96.36;102865.88;5000117;28;20039;-73
2021/03/03 03:10:26;;;;;;;25.20;14.40;;;;;;;2.50;95.91;102862.53;4957745;28;20052;-73
2021/03/03 03:12:54;;;;;;;34.93;16.30;;;;;;;2.44;95.45;102867.06;4961611;28;20035;-73
2021/03/03 03:15:25;;;;;;;39.97;17.50;;;;;;;2.43;95.58;102858.56;4969128;28;20119;-73
2021/03/03 03:17:58;;;;;;;37.63;17.53;;;;;;;2.41;95.46;102859.19;4972099;28;20087;-73
2021/03/03 03:20:25;;;;;;;33.43;18.17;;;;;;;2.39;95.16;102858.16;4983239;28;20028;-73
2021/03/03 03:22:52;;;;;;;33.03;17.90;;;;;;;2.37;95.35;102855.50;4973985;28;20101;-73
2021/03/03 03:25:18;;;;;;;37.43;18.33;;;;;;;2.32;95.26;102855.84;4988006;28;20130;-73
2021/03/03 03:27:46;;;;;;;36.25;18.67;;;;;;;2.34;95.13;102865.38;4976104;28;20327;-73
2021/03/03 03:30:13;;;;;;;30.07;16.17;;;;;;;2.32;95.05;102859.28;4985447;28;20025;-73
2021/03/03 03:32:40;;;;;;;39.37;19.07;;;;;;;2.29;95.12;102864.06;4985005;28;20120;-73
2021/03/03 03:35:07;;;;;;;32.10;16.93;;;;;;;2.30;94.77;102865.84;4968468;28;20021;-73
2021/03/03 03:37:32;;;;;;;29.53;16.10;;;;;;;2.28;94.73;102872.44;4982272;28;20089;-73
2021/03/03 03:39:59;;;;;;;24.90;14.23;;;;;;;2.11;92.89;102862.41;4978880;28;20026;-73
2021/03/03 03:42:28;;;;;;;30.67;15.40;;;;;;;2.08;92.67;102867.22;4995065;28;20020;-73
2021/03/03 03:44:56;;;;;;;39.10;18.70;;;;;;;2.12;93.52;102871.81;4987641;28;20047;-73
2021/03/03 03:47:22;;;;;;;32.27;18.07;;;;;;;2.21;93.72;102875.16;4962095;28;20033;-73
2021/03/03 03:49:48;;;;;;;38.03;20.73;;;;;;;2.26;94.53;102866.31;4984234;28;20244;-73
2021/03/03 03:52:18;;;;;;;39.60;20.07;;;;;;;2.33;95.08;102872.84;4960839;28;20035;-73
2021/03/03 03:54:52;;;;;;;44.10;20.53;;;;;;;2.40;95.23;102880.25;4983732;28;20020;-73
2021/03/03 03:57:18;;;;;;;32.73;17.33;;;;;;;2.41;95.68;102870.22;4967072;28;20014;-73
2021/03/03 03:59:44;;;;;;;44.30;21.93;;;;;;;2.39;95.82;102876.81;4974216;28;20110;-73
2021/03/03 04:02:09;;;;;;;40.13;20.88;;;;;;;2.38;95.75;102869.97;4955607;28;20466;-73
2021/03/03 04:04:35;;;;;;;39.67;19.63;;;;;;;2.36;95.68;102871.47;4978129;28;20330;-73
2021/03/03 04:07:01;;;;;;;33.20;18.88;;;;;;;2.37;95.80;102878.31;4960960;28;20186;-73
2021/03/03 04:09:26;;;;;;;40.83;21.20;;;;;;;2.35;95.63;102877.28;4973336;28;20312;-73
2021/03/03 04:11:52;;;;;;;33.80;18.52;;;;;;;2.37;95.69;102882.50;4960947;28;20168;-73
2021/03/03 04:14:20;;;;;;;38.90;22.27;;;;;;;2.38;95.92;102884.28;4966486;28;20207;-73
2021/03/03 04:16:45;;;;;;;38.97;20.97;;;;;;;2.38;95.91;102890.25;4958829;28;20155;-73
2021/03/03 04:19:11;;;;;;;40.50;21.55;;;;;;;2.43;96.30;102896.63;4963606;28;20342;-73
2021/03/03 04:21:36;;;;;;;42.40;22.00;;;;;;;2.46;96.46;102894.34;4984118;28;20351;-74
2021/03/03 04:24:02;;;;;;;47.53;23.23;;;;;;;2.47;96.47;102896.13;4954056;28;20418;-73
2021/03/03 04:26:27;;;;;;;46.45;22.88;;;;;;;2.46;96.21;102896.00;4976205;28;20385;-73
2021/03/03 04:28:53;;;;;;;46.28;23.55;;;;;;;2.47;96.68;102901.19;4979550;28;20028;-73
2021/03/03 04:31:18;;;;;;;46.47;22.40;;;;;;;2.45;96.41;102899.28;4981583;28;20198;-73
2021/03/03 04:33:44;;;;;;;35.33;18.83;;;;;;;2.41;96.22;102900.66;4986661;28;20318;-73
2021/03/03 04:36:09;;;;;;;37.03;19.08;;;;;;;2.30;95.60;102901.38;4984370;28;20106;-73
2021/03/03 04:38:35;;;;;;;32.83;18.58;;;;;;;2.18;94.78;102895.16;4983625;28;20425;-73
2021/03/03 04:41:00;;;;;;;38.15;19.25;;;;;;;2.11;94.29;102902.97;4977660;28;20310;-73
2021/03/03 04:43:26;;;;;;;24.67;14.98;;;;;;;2.02;93.48;102897.09;4959484;28;20383;-73
2021/03/03 04:45:51;;;;;;;37.70;15.80;;;;;;;1.92;93.27;102895.34;4950954;28;20592;-73
2021/03/03 04:48:16;;;;;;;30.33;15.75;;;;;;;1.90;93.54;102899.38;4995545;28;20300;-73
2021/03/03 04:50:42;;;;;;;32.10;17.77;;;;;;;1.93;94.01;102901.28;4956092;28;20342;-73
2021/03/03 04:53:08;;;;;;;29.52;17.50;;;;;;;1.96;93.98;102889.81;4986694;28;20322;-73
2021/03/03 04:55:33;;;;;;;33.88;17.73;;;;;;;1.93;93.70;102881.03;4968464;28;20327;-73
2021/03/03 04:57:59;;;;;;;29.40;16.48;;;;;;;1.92;93.55;102881.78;4985111;28;20361;-73
2021/03/03 05:00:24;;;;;;;28.58;13.25;;;;;;;1.92;93.51;102882.66;4984648;28;20384;-72
2021/03/03 05:02:50;;;;;;;21.25;13.05;;;;;;;1.92;93.79;102874.16;4976562;28;20059;-73
2021/03/03 05:05:15;;;;;;;27.95;16.65;;;;;;;1.92;94.01;102876.69;4967410;28;20325;-73
2021/03/03 05:07:41;;;;;;;40.47;21.65;;;;;;;1.97;94.41;102878.03;4990881;28;20182;-73
2021/03/03 05:10:07;;;;;;;47.88;22.63;;;;;;;2.01;94.85;102875.03;4973284;28;20317;-73
2021/03/03 05:12:32;;;;;;;51.15;26.02;;;;;;;2.04;95.30;102870.22;4955880;28;20386;-73
2021/03/03 05:14:58;;;;;;;50.30;25.70;;;;;;;2.08;95.59;102872.28;4961045;28;20531;-73
2021/03/03 05:17:23;;;;;;;49.08;25.50;;;;;;;2.23;96.53;102877.81;4977968;28;20396;-73
2021/03/03 05:19:49;;;;;;;54.45;27.90;;;;;;;2.28;96.74;102869.00;4970774;28;20357;-73
2021/03/03 05:22:15;;;;;;;53.78;26.58;;;;;;;2.31;96.81;102880.31;4974270;28;20421;-73
2021/03/03 05:24:41;;;;;;;47.65;25.02;;;;;;;2.33;97.07;102873.75;4972150;28;20408;-72
2021/03/03 05:27:06;;;;;;;;;;;;;;;2.34;97.04;102879.69;4987213;28;20047;-73
2021/03/03 05:29:32;;;;;;;43.57;23.10;;;;;;;2.34;96.97;102875.50;4984596;28;20340;-73
2021/03/03 05:31:58;;;;;;;43.45;24.15;;;;;;;2.36;96.92;102871.47;4970258;28;20381;-73
2021/03/03 05:34:24;;;;;;;43.50;22.77;;;;;;;2.36;96.59;102868.03;4975520;28;20084;-72
2021/03/03 05:36:49;;;;;;;60.65;28.40;;;;;;;2.35;96.63;102869.69;4979398;28;20334;-73
2021/03/03 05:39:15;;;;;;;62.35;31.75;;;;;;;2.38;96.55;102864.88;4966324;28;20016;-73
2021/03/03 05:41:40;;;;;;;66.95;33.78;;;;;;;2.46;96.71;102865.56;4977355;28;20346;-73
2021/03/03 05:44:07;;;;;;;39.25;21.27;;;;;;;2.47;96.78;102860.63;4975593;28;20339;-73
2021/03/03 05:46:36;;;;;;;34.30;19.53;;;;;;;2.38;96.66;102864.00;4974494;28;20065;-73
2021/03/03 05:49:03;;;;;;;32.80;18.33;;;;;;;2.35;96.08;102864.63;4991852;28;20032;-73
2021/03/03 05:51:31;;;;;;;32.00;16.43;;;;;;;2.25;95.45;102867.06;4964908;28;20021;-73
2021/03/03 05:53:58;;;;;;;26.53;14.43;;;;;;;2.16;94.98;102864.59;4991400;28;20151;-73
2021/03/03 05:56:25;;;;;;;21.13;12.33;;;;;;;2.11;94.50;102862.41;4979178;28;20549;-73
2021/03/03 05:58:50;;;;;;;23.23;12.80;;;;;;;2.04;94.16;102862.63;4967830;28;20071;-73
2021/03/03 06:01:17;;;;;;;24.17;14.35;;;;;;;1.99;94.13;102874.88;4983632;28;20353;-73
2021/03/03 06:03:43;;;;;;;27.40;15.00;;;;;;;1.98;93.98;102872.22;4963017;28;20110;-73
2021/03/03 06:06:09;;;;;;;24.98;13.57;;;;;;;2.04;94.30;102875.31;4962431;28;20325;-73
2021/03/03 06:08:35;;;;;;;23.70;12.52;;;;;;;2.21;94.41;102875.16;4991642;28;20144;-73
2021/03/03 06:11:01;;;;;;;20.70;12.63;;;;;;;2.31;94.61;102872.72;4974739;28;20327;-73
2021/03/03 06:13:27;;;;;;;25.77;13.43;;;;;;;2.31;94.69;102880.31;4986210;28;20123;-73
2021/03/03 06:15:53;;;;;;;41.60;21.58;;;;;;;2.63;94.85;102882.28;4992212;28;20150;-73
2021/03/03 06:18:20;;;;;;;41.33;22.83;;;;;;;2.71;95.14;102881.31;4963125;28;20308;-73
2021/03/03 06:20:50;;;;;;;63.70;33.03;;;;;;;2.96;96.01;102875.06;4958341;28;20025;-72
2021/03/03 06:23:17;;;;;;;76.00;36.17;;;;;;;3.18;96.25;102876.91;4979352;28;20037;-73
2021/03/03 06:25:45;;;;;;;76.03;37.67;;;;;;;3.26;96.63;102878.47;4986137;28;20028;-73
2021/03/03 06:28:11;;;;;;;74.93;36.63;;;;;;;3.36;96.21;102881.94;4963790;28;20060;-73
2021/03/03 06:30:36;;;;;;;;;;;;;;;3.49;96.32;102886.38;4986799;28;20024;-73
2021/03/03 06:33:06;;;;;;;82.27;37.13;;;;;;;3.51;96.11;102884.84;4978836;28;20214;-74
2021/03/03 06:35:42;;;;;;;83.47;39.37;;;;;;;3.59;96.30;102891.50;5000950;28;20553;-75
2021/03/03 06:38:14;;;;;;;80.53;36.00;;;;;;;3.61;95.87;102892.53;5004012;28;20059;-75
2021/03/03 06:40:58;;;;;;;68.50;35.37;;;;;;;3.58;95.85;102892.25;4962602;28;20055;-77
2021/03/03 06:43:29;;;;;;;69.40;33.80;;;;;;;3.60;95.65;102900.91;4977685;28;20051;-74
2021/03/03 06:45:55;;;;;;;70.90;34.50;;;;;;;3.56;95.92;102903.03;4981259;28;20131;-72
2021/03/03 06:48:40;;;;;;;64.27;33.67;;;;;;;3.48;95.30;102910.00;4974514;28;20127;-73
2021/03/03 06:51:35;;;;;;;64.47;32.83;;;;;;;3.59;95.41;102909.28;4982759;28;20029;-73
2021/03/03 06:54:19;;;;;;;60.10;31.20;;;;;;;3.63;95.16;102906.25;4949633;28;20025;-72
2021/03/03 06:56:45;;;;;;;56.23;30.40;;;;;;;3.54;94.95;102909.63;4972459;28;20601;-73
2021/03/03 06:59:11;;;;;;;56.80;29.40;;;;;;;3.48;95.04;102915.09;4957457;28;20029;-73
2021/03/03 07:01:36;;;;;;;58.95;30.33;;;;;;;3.47;94.95;102908.22;5002988;28;20106;-73
2021/03/03 07:04:02;;;;;;;55.65;29.30;;;;;;;3.53;94.78;102913.81;4993684;28;20543;-73
2021/03/03 07:06:33;;;;;;;51.20;28.38;;;;;;;3.59;94.45;102911.84;4992179;28;20388;-73
2021/03/03 07:08:59;;;;;;;58.23;27.93;;;;;;;3.60;94.19;102916.16;4972300;28;20135;-73
2021/03/03 07:11:29;;;;;;;52.33;27.20;;;;;;;3.56;93.72;102923.38;4971322;28;20331;-73
2021/03/03 07:13:56;;;;;;;53.17;28.03;;;;;;;3.58;93.68;102926.94;4968340;28;20021;-74
2021/03/03 07:16:22;;;;;;;50.40;27.80;;;;;;;3.53;93.93;102933.25;4974154;28;20040;-73
2021/03/03 07:18:48;;;;;;;58.83;27.40;;;;;;;3.54;94.05;102935.94;4963345;28;20124;-74
2021/03/03 07:21:15;;;;;;;52.38;26.80;;;;;;;3.50;93.78;102946.59;4990670;28;20374;-74
2021/03/03 07:23:40;;;;;;;47.77;25.67;;;;;;;3.44;93.96;102943.53;4985051;28;20056;-74
2021/03/03 07:26:06;;;;;;;53.45;26.10;;;;;;;3.46;94.17;102947.09;4965049;28;20316;-74
2021/03/03 07:28:32;;;;;;;42.90;22.88;;;;;;;3.39;93.56;102940.63;4984061;28;20497;-74
2021/03/03 07:30:58;;;;;;;44.78;25.23;;;;;;;3.39;93.53;102948.22;4985917;28;20055;-74
2021/03/03 07:33:25;;;;;;;40.95;21.80;;;;;;;3.33;92.91;102945.16;4961848;28;20051;-74
2021/03/03 07:35:51;;;;;;;42.67;22.03;;;;;;;3.14;92.59;102951.94;4978653;28;20102;-75
2021/03/03 07:38:18;;;;;;;41.22;22.90;;;;;;;3.18;93.15;102942.94;5010156;28;20131;-74
2021/03/03 07:40:44;;;;;;;48.80;23.60;;;;;;;3.29;93.24;102947.31;5010132;28;20024;-75
2021/03/03 07:43:10;;;;;;;41.55;22.42;;;;;;;3.31;93.43;102946.69;5009926;28;20305;-73
2021/03/03 07:45:41;;;;;;;43.53;23.02;;;;;;;3.28;93.29;102959.13;4991903;28;20549;-74
2021/03/03 07:48:08;;;;;;;53.60;23.33;;;;;;;3.28;93.67;102955.69;4992672;28;20048;-74
2021/03/03 07:50:34;;;;;;;60.20;24.57;;;;;;;3.30;94.05;102951.63;4991890;28;20024;-74
2021/03/03 07:52:59;;;;;;;58.20;24.02;;;;;;;3.21;94.25;102959.31;4990922;28;20576;-73
2021/03/03 07:55:25;;;;;;;61.88;24.85;;;;;;;3.27;94.70;102948.84;4992082;28;20035;-74
2021/03/03 07:57:53;;;;;;;54.95;24.55;;;;;;;3.19;94.79;102955.75;5002388;28;20049;-74
2021/03/03 08:00:26;;;;;;;45.43;23.53;;;;;;;3.21;94.83;102958.44;4954288;28;20582;-74
2021/03/03 08:02:56;;;;;;;47.07;24.40;;;;;;;3.29;94.62;102954.94;4953547;28;20362;-75
2021/03/03 08:05:34;;;;;;;46.07;22.77;;;;;;;3.36;94.47;102947.97;5005662;28;20352;-74
2021/03/03 08:08:27;;;;;;;40.17;21.70;;;;;;;3.36;94.52;102944.53;5011135;28;20032;-76
2021/03/03 08:11:12;;;;;;;37.60;21.07;;;;;;;3.42;94.21;102950.16;4992281;28;20024;-74
2021/03/03 08:13:39;;;;;;;33.10;19.10;;;;;;;3.52;94.27;102952.69;4994186;28;20187;-74
2021/03/03 08:16:08;;;;;;;35.67;19.03;;;;;;;3.63;93.73;102952.00;4980991;28;20625;-74
2021/03/03 08:18:36;;;;;;;33.07;18.57;;;;;;;3.72;92.61;102951.88;4987156;28;20215;-74
2021/03/03 08:21:08;;;;;;;36.37;18.83;;;;;;;3.68;93.09;102960.00;4955228;28;20120;-75
2021/03/03 08:23:33;;;;;;;446.00;56.17;;;;;;;3.60;93.30;102964.44;4952586;28;20056;-76
2021/03/03 08:26:03;;;;;;;501.95;60.17;;;;;;;3.66;93.17;102964.97;4953182;28;20206;-74
2021/03/03 08:28:35;;;;;;;37.13;19.97;;;;;;;3.72;93.16;102960.38;4952833;28;20190;-76
2021/03/03 08:31:10;;;;;;;35.10;21.10;;;;;;;3.68;93.18;102960.91;4952458;28;20141;-74
2021/03/03 08:33:58;;;;;;;43.33;21.43;;;;;;;3.75;93.48;102963.19;4955703;28;20178;-74
2021/03/03 08:36:25;;;;;;;;;;;;;;;3.85;93.01;102964.84;4959925;28;20306;-74
2021/03/03 08:38:53;;;;;;;26.70;15.27;;;;;;;3.90;92.93;102967.78;4956923;28;20036;-74
2021/03/03 08:41:18;;;;;;;41.93;20.20;;;;;;;3.90;92.89;102962.69;4974523;28;20550;-75
2021/03/03 08:43:48;;;;;;;43.50;20.20;;;;;;;3.95;92.88;102956.38;4973399;28;20021;-74
2021/03/03 08:46:20;;;;;;;40.03;21.20;;;;;;;4.12;92.51;102956.09;4973741;28;20829;-74
2021/03/03 08:48:57;;;;;;;39.20;20.30;;;;;;;4.20;92.42;102951.66;4974419;28;20029;-74
2021/03/03 08:51:31;;;;;;;38.40;20.00;;;;;;;4.34;92.03;102956.25;4958563;28;20025;-73
2021/03/03 08:54:01;;;;;;;41.03;19.30;;;;;;;4.46;91.82;102946.19;4974062;28;20095;-74
2021/03/03 08:56:40;;;;;;;44.07;19.63;;;;;;;4.49;91.39;102952.41;4957627;28;20395;-73
2021/03/03 08:59:12;;;;;;;36.93;18.97;;;;;;;4.59;91.72;102943.88;4969724;28;20024;-75
2021/03/03 09:02:02;;;;;;;36.13;20.03;;;;;;;4.81;91.04;102944.81;4986699;28;20040;-75
2021/03/03 09:04:54;;;;;;;37.77;18.63;;;;;;;4.89;90.41;102940.38;4994531;28;20830;-74
2021/03/03 09:07:24;;;;;;;42.50;20.03;;;;;;;5.04;90.40;102940.69;4980254;28;20044;-74
2021/03/03 09:09:52;;;;;;;42.67;19.67;;;;;;;5.06;90.15;102936.59;4972645;28;20593;-74
2021/03/03 09:12:22;;;;;;;37.67;20.20;;;;;;;5.19;90.03;102931.69;4973556;28;20025;-73
2021/03/03 09:14:50;;;;;;;32.00;19.03;;;;;;;5.39;89.71;102931.63;4968730;28;20021;-74
2021/03/03 09:17:20;;;;;;;32.37;18.70;;;;;;;5.35;89.54;102931.25;4959894;28;20025;-74
2021/03/03 09:19:45;;;;;;;34.57;19.30;;;;;;;5.27;89.56;102923.03;4970899;28;20446;-73
2021/03/03 09:22:18;;;;;;;35.13;20.20;;;;;;;5.29;89.89;102918.94;4999181;28;20021;-74
2021/03/03 09:24:45;;;;;;;37.80;20.70;;;;;;;5.28;90.18;102923.16;4995820;28;20256;-75
2021/03/03 09:27:11;;;;;;;45.20;21.67;;;;;;;5.35;90.06;102923.63;4984602;28;20198;-73
2021/03/03 09:29:38;;;;;;;38.42;23.00;;;;;;;5.30;90.67;102929.25;4994652;28;20024;-74
2021/03/03 09:32:06;;;;;;;43.93;24.20;;;;;;;5.38;90.29;102927.28;4993372;28;20295;-74
2021/03/03 09:34:34;;;;;;;44.60;23.10;;;;;;;5.54;89.76;102926.84;4990038;28;20031;-75
2021/03/03 09:37:02;;;;;;;44.37;23.47;;;;;;;5.39;89.92;102934.16;5013011;28;20210;-75
2021/03/03 09:39:28;;;;;;;41.33;22.50;;;;;;;5.57;89.58;102932.16;4985778;28;21074;-74
2021/03/03 09:41:58;;;;;;;56.38;25.13;;;;;;;5.58;89.33;102936.50;4973952;28;20316;-73
2021/03/03 09:44:25;;;;;;;43.77;25.60;;;;;;;5.49;89.66;102936.66;4985142;28;20180;-73
2021/03/03 09:47:00;;;;;;;41.20;23.80;;;;;;;5.43;89.54;102920.88;4971181;28;20061;-73
2021/03/03 09:49:30;;;;;;;43.63;26.47;;;;;;;5.43;89.82;102925.97;4978370;28;20115;-73
2021/03/03 09:51:57;;;;;;;41.67;24.70;;;;;;;5.57;89.68;102924.53;4977011;28;20103;-73
2021/03/03 09:54:31;;;;;;;48.17;25.87;;;;;;;5.69;89.32;102929.66;4956552;28;20021;-73
2021/03/03 09:57:05;;;;;;;51.23;28.57;;;;;;;5.69;89.70;102924.56;4968750;28;20028;-74
2021/03/03 09:59:33;;;;;;;54.77;27.33;;;;;;;5.70;89.22;102926.34;4991122;28;20047;-74
2021/03/03 10:01:58;;;;;;;54.70;28.00;;;;;;;5.55;88.82;102926.06;4993699;28;20028;-73
2021/03/03 10:04:25;;;;;;;53.72;28.45;;;;;;;5.57;89.31;102919.41;4994142;28;20544;-73
2021/03/03 10:06:50;;;;;;;55.17;31.47;;;;;;;5.52;89.64;102929.22;5010554;28;20329;-73
2021/03/03 10:09:16;;;;;;;53.22;32.20;;;;;;;5.60;89.38;102927.31;5012374;28;20858;-74
2021/03/03 10:11:42;;;;;;;59.30;31.95;;;;;;;5.72;89.54;102929.91;5007425;28;20040;-73
2021/03/03 10:14:10;;;;;;;;;;;;;;;5.79;88.86;102933.03;5012587;28;20312;-74
2021/03/03 10:16:36;;;;;;;58.67;31.93;;;;;;;5.71;88.81;102935.75;4993857;28;19955;-74
2021/03/03 10:19:09;;;;;;;60.28;34.53;;;;;;;5.68;89.07;102935.53;4988953;28;20028;-72
2021/03/03 10:21:44;;;;;;;62.57;33.80;;;;;;;5.67;89.67;102938.84;4954826;28;20030;-73
2021/03/03 10:24:17;;;;;;;58.17;34.97;;;;;;;5.90;89.56;102926.25;5005736;28;20198;-74
2021/03/03 10:26:46;;;;;;;65.53;35.27;;;;;;;5.97;89.27;102932.69;5010610;28;20194;-73
2021/03/03 10:29:30;;;;;;;67.90;36.83;;;;;;;6.11;88.49;102930.38;4966893;28;20020;-73
2021/03/03 10:32:10;;;;;;;70.40;35.77;;;;;;;6.06;87.88;102926.59;4992418;28;20815;-73
2021/03/03 10:34:36;;;;;;;68.90;37.27;;;;;;;6.10;88.60;102927.72;4992960;28;20032;-74
2021/03/03 10:37:02;;;;;;;69.03;38.17;;;;;;;6.25;88.38;102931.44;4993402;28;20094;-73
2021/03/03 10:39:28;;;;;;;74.38;40.75;;;;;;;6.25;88.18;102936.53;4993178;28;20021;-73
2021/03/03 10:42:02;;;;;;;79.65;43.20;;;;;;;6.34;87.99;102931.22;4961843;28;20548;-74
2021/03/03 10:44:38;;;;;;;77.83;43.03;;;;;;;6.45;87.70;102930.34;4993049;28;20313;-74
2021/03/03 10:47:04;;;;;;;79.63;42.45;;;;;;;6.65;87.12;102925.03;4992462;28;20115;-73
2021/03/03 10:49:29;;;;;;;86.80;43.83;;;;;;;6.84;87.67;102927.28;4992899;28;20291;-73
2021/03/03 10:51:54;;;;;;;76.95;42.03;;;;;;;7.04;86.31;102929.56;4990685;28;20047;-73
2021/03/03 10:54:33;;;;;;;81.27;44.00;;;;;;;7.14;85.40;102929.44;4985210;28;20874;-73
2021/03/03 10:57:08;;;;;;;76.83;41.87;;;;;;;7.14;84.77;102926.88;4968266;28;20021;-73
2021/03/03 10:59:36;;;;;;;81.40;44.10;;;;;;;7.29;85.51;102928.75;4992038;28;20807;-74
2021/03/03 11:02:04;;;;;;;75.63;44.80;;;;;;;7.40;84.61;102925.28;5009730;28;20191;-73
2021/03/03 11:04:45;;;;;;;80.37;43.03;;;;;;;7.73;85.38;102921.59;4975875;28;20589;-74
2021/03/03 11:07:12;;;;;;;82.13;41.93;;;;;;;8.09;84.19;102930.88;4953657;28;20028;-74
2021/03/03 11:09:38;;;;;;;80.13;44.87;;;;;;;8.51;82.71;102927.75;4951487;28;20187;-74
2021/03/03 11:12:04;;;;;;;69.93;39.65;;;;;;;8.90;79.52;102923.44;4952211;28;20614;-73
2021/03/03 11:14:30;;;;;;;73.87;41.47;;;;;;;9.41;79.83;102919.75;4967838;28;20033;-74
2021/03/03 11:16:57;;;;;;;71.45;41.80;;;;;;;10.13;78.66;102915.63;4967428;28;20371;-74
2021/03/03 11:19:24;;;;;;;69.07;39.63;;;;;;;10.76;75.44;102914.13;4969565;28;20025;-74
2021/03/03 11:21:51;;;;;;;67.43;39.10;;;;;;;10.60;74.53;102923.53;4989684;28;20557;-74
2021/03/03 11:24:17;;;;;;;69.18;40.38;;;;;;;10.40;75.33;102913.78;5008409;28;20591;-73